createdAt,value
2022-08-09T00:01:54.924Z,21.13
2022-08-09T00:12:03.951Z,21.10
2022-08-09T00:22:07.698Z,20.92
2022-08-09T00:32:25.743Z,20.90
2022-08-09T00:44:13.223Z,20.87
2022-08-09T00:52:53.864Z,20.78
2022-08-09T01:03:09.979Z,20.71
2022-08-09T01:13:16.714Z,20.64
2022-08-09T01:24:02.212Z,20.65
2022-08-09T01:34:10.776Z,20.58
2022-08-09T01:44:15.994Z,20.53
2022-08-09T01:54:21.470Z,20.48
2022-08-09T02:04:26.221Z,20.53
2022-08-09T02:14:30.587Z,20.60
2022-08-09T02:24:38.222Z,20.56
2022-08-09T02:34:51.863Z,20.48
2022-08-09T02:45:15.078Z,20.52
2022-08-09T02:55:20.938Z,20.46
2022-08-09T03:05:25.232Z,20.40
2022-08-09T03:15:40.645Z,20.30
2022-08-09T03:25:58.981Z,20.22
2022-08-09T03:36:13.061Z,20.09
2022-08-09T03:46:27.275Z,20.21
2022-08-09T03:56:33.268Z,20.34
2022-08-09T04:06:37.490Z,20.51
2022-08-09T04:16:41.447Z,20.56
2022-08-09T04:26:45.455Z,20.54
2022-08-09T04:36:50.450Z,20.55
2022-08-09T04:46:59.454Z,21.16
2022-08-09T04:57:09.378Z,21.56
2022-08-09T05:07:19.089Z,21.35
2022-08-09T05:18:39.559Z,21.36
2022-08-09T05:27:48.070Z,21.23
2022-08-09T05:37:51.214Z,21.37
2022-08-09T05:47:59.225Z,22.55
2022-08-09T05:58:07.108Z,22.71
2022-08-09T06:08:11.086Z,22.59
2022-08-09T06:18:15.736Z,22.41
2022-08-09T06:28:19.743Z,22.54
2022-08-09T06:38:32.167Z,22.22
2022-08-09T06:48:42.932Z,22.56
2022-08-09T07:00:53.059Z,22.64
2022-08-09T07:09:53.446Z,22.86
2022-08-09T07:19:32.141Z,23.10
2022-08-09T07:29:37.904Z,23.38
2022-08-09T07:39:46.459Z,23.71
2022-08-09T07:50:04.813Z,24.40
2022-08-09T08:00:10.126Z,24.10
2022-08-09T08:10:14.947Z,24.04
2022-08-09T08:20:28.531Z,23.85
2022-08-09T08:30:33.687Z,25.77
2022-08-09T08:40:37.424Z,26.47
2022-08-09T08:50:40.409Z,25.03
2022-08-09T09:00:56.407Z,25.48
2022-08-09T09:11:05.792Z,25.18
2022-08-09T09:21:08.896Z,25.92
2022-08-09T09:32:01.670Z,26.56
2022-08-09T09:41:49.201Z,26.89
2022-08-09T09:52:02.101Z,28.59
2022-08-09T10:02:06.606Z,30.65
2022-08-09T10:12:14.289Z,29.00
2022-08-09T10:22:36.388Z,29.17
2022-08-09T10:32:42.694Z,29.78
2022-08-09T10:42:46.216Z,30.24
2022-08-09T10:53:10.025Z,31.24
2022-08-09T11:03:49.784Z,30.55
2022-08-09T11:14:28.248Z,31.13
2022-08-09T11:25:10.198Z,29.45
2022-08-09T11:35:35.309Z,31.69
2022-08-09T11:46:00.602Z,30.83
2022-08-09T11:56:19.347Z,31.94
2022-08-09T12:06:26.625Z,30.98
2022-08-09T12:16:39.954Z,31.49
2022-08-09T12:28:58.297Z,30.99
2022-08-09T12:37:23.741Z,31.36
2022-08-09T12:47:28.861Z,30.80
2022-08-09T12:57:43.195Z,31.15
2022-08-09T13:08:14.424Z,31.88
2022-08-09T13:18:18.247Z,30.51
2022-08-09T13:28:24.593Z,30.07
2022-08-09T13:38:55.407Z,30.74
2022-08-09T13:48:59.518Z,30.44
2022-08-09T13:59:06.016Z,29.83
2022-08-09T14:09:10.982Z,29.27
2022-08-09T14:19:13.959Z,29.43
2022-08-09T14:30:18.339Z,29.15
2022-08-09T14:39:48.035Z,28.57
2022-08-09T14:50:01.862Z,28.61
2022-08-09T15:00:06.518Z,28.59
2022-08-09T15:10:14.055Z,28.18
2022-08-09T15:21:54.922Z,27.36
2022-08-09T15:30:48.861Z,27.60
2022-08-09T15:41:09.536Z,27.16
2022-08-09T15:51:44.520Z,26.66
2022-08-09T16:01:36.041Z,26.22
2022-08-09T16:11:51.594Z,26.00
2022-08-09T16:22:02.517Z,25.77
2022-08-09T16:32:18.137Z,25.50
2022-08-09T16:42:29.259Z,25.22
2022-08-09T16:52:32.695Z,24.95
2022-08-09T17:02:39.122Z,24.44
2022-08-09T17:12:46.627Z,24.45
2022-08-09T17:22:51.981Z,24.30
2022-08-09T17:33:05.455Z,24.05
2022-08-09T17:43:33.954Z,23.89
2022-08-09T17:53:43.348Z,23.77
2022-08-09T18:03:52.585Z,23.61
2022-08-09T18:14:04.636Z,23.37
2022-08-09T18:24:15.791Z,23.02
2022-08-09T18:34:19.071Z,22.74
2022-08-09T18:44:27.075Z,22.36
2022-08-09T18:54:30.634Z,22.22
2022-08-09T19:04:34.749Z,21.97
2022-08-09T19:14:39.545Z,21.72
2022-08-09T19:25:07.429Z,21.59
2022-08-09T19:35:10.050Z,21.40
2022-08-09T19:45:13.442Z,21.28
2022-08-09T19:55:19.533Z,21.18
2022-08-09T20:05:28.806Z,20.96
2022-08-09T20:16:35.232Z,20.85
2022-08-09T20:26:10.185Z,20.69
2022-08-09T20:36:16.395Z,20.60
2022-08-09T20:46:33.991Z,20.47
2022-08-09T20:56:49.862Z,20.43
2022-08-09T21:06:56.948Z,20.35
2022-08-09T21:17:01.061Z,20.27
2022-08-09T21:27:50.490Z,20.18
2022-08-09T21:37:27.624Z,20.08
2022-08-09T21:47:42.316Z,19.98
2022-08-09T21:57:59.213Z,19.93
2022-08-09T22:08:04.088Z,19.74
2022-08-09T22:18:11.953Z,19.75
2022-08-09T22:28:29.554Z,19.62
2022-08-09T22:38:35.731Z,19.53
2022-08-09T22:48:44.982Z,19.53
2022-08-09T22:58:53.472Z,19.47
2022-08-09T23:08:56.807Z,19.41
2022-08-09T23:19:00.219Z,19.37
2022-08-09T23:29:04.618Z,19.36
2022-08-09T23:39:08.336Z,19.24
2022-08-09T23:49:14.182Z,19.16
2022-08-09T23:59:17.174Z,19.11
